Terminal Aerodrome Forecast
Issued by NWS

Current Version | Previous Version | Graphics & Text | Print | Product List | Glossary On
Versions: 1 2 3 4 5 6 7 8 9 10 11 12 13 14 15 16 17 18 19 20 21 22 23 24 25 26
000
FTUS41 KRLX 142300
TAFCKB
TAF
KCKB 142321Z 1500/1524 VRB02KT P6SM FEW035
     FM150600 00000KT 6SM BR FEW040
     FM150900 00000KT 3SM BR FEW040
     FM151000 00000KT 1 1/2SM BR FEW005
     FM151300 00000KT 4SM BR FEW010 SCT200
     FM151400 22004KT P6SM SCT090=

USA.gov is the U.S. government's official web portal to all federal, state and local government web resources and services.